sensor_id;sensor_type;location;lat;lon;timestamp;temperature;humidity
52669;DHT22;59898;52.786;6.892;2023-08-12T00:00:12;20.80;85.60
52669;DHT22;59898;52.786;6.892;2023-08-12T00:03:33;20.80;85.90
52669;DHT22;59898;52.786;6.892;2023-08-12T00:06:54;20.80;87.00
52669;DHT22;59898;52.786;6.892;2023-08-12T00:10:14;20.70;87.50
52669;DHT22;59898;52.786;6.892;2023-08-12T00:13:35;20.60;88.00
52669;DHT22;59898;52.786;6.892;2023-08-12T00:16:56;20.60;88.30
52669;DHT22;59898;52.786;6.892;2023-08-12T00:20:17;20.50;88.30
52669;DHT22;59898;52.786;6.892;2023-08-12T00:23:39;20.50;89.20
52669;DHT22;59898;52.786;6.892;2023-08-12T00:27:00;20.50;89.30
52669;DHT22;59898;52.786;6.892;2023-08-12T00:30:21;20.40;89.20
52669;DHT22;59898;52.786;6.892;2023-08-12T00:33:42;20.40;89.10
52669;DHT22;59898;52.786;6.892;2023-08-12T00:37:02;20.40;88.90
52669;DHT22;59898;52.786;6.892;2023-08-12T00:40:23;20.40;89.20
52669;DHT22;59898;52.786;6.892;2023-08-12T00:43:44;20.40;88.90
52669;DHT22;59898;52.786;6.892;2023-08-12T00:47:05;20.40;89.70
52669;DHT22;59898;52.786;6.892;2023-08-12T00:50:26;20.40;89.10
52669;DHT22;59898;52.786;6.892;2023-08-12T00:53:46;20.30;89.60
52669;DHT22;59898;52.786;6.892;2023-08-12T00:57:08;20.40;89.00
52669;DHT22;59898;52.786;6.892;2023-08-12T01:00:28;20.30;89.70
52669;DHT22;59898;52.786;6.892;2023-08-12T01:03:49;20.30;89.30
52669;DHT22;59898;52.786;6.892;2023-08-12T01:07:10;20.30;89.60
52669;DHT22;59898;52.786;6.892;2023-08-12T01:10:35;20.30;90.10
52669;DHT22;59898;52.786;6.892;2023-08-12T01:17:50;20.20;90.30
52669;DHT22;59898;52.786;6.892;2023-08-12T01:21:16;20.20;90.20
52669;DHT22;59898;52.786;6.892;2023-08-12T01:24:41;20.10;90.50
52669;DHT22;59898;52.786;6.892;2023-08-12T01:28:02;20.20;90.40
52669;DHT22;59898;52.786;6.892;2023-08-12T01:31:34;20.20;90.30
52669;DHT22;59898;52.786;6.892;2023-08-12T01:35:07;20.20;91.10
52669;DHT22;59898;52.786;6.892;2023-08-12T01:38:31;20.10;91.40
52669;DHT22;59898;52.786;6.892;2023-08-12T01:41:52;20.10;91.30
52669;DHT22;59898;52.786;6.892;2023-08-12T01:45:14;20.10;90.80
52669;DHT22;59898;52.786;6.892;2023-08-12T01:48:35;20.10;90.80
52669;DHT22;59898;52.786;6.892;2023-08-12T01:51:55;20.00;90.80
52669;DHT22;59898;52.786;6.892;2023-08-12T01:55:16;20.00;91.10
52669;DHT22;59898;52.786;6.892;2023-08-12T01:58:37;20.00;91.50
52669;DHT22;59898;52.786;6.892;2023-08-12T02:01:57;20.00;91.40
52669;DHT22;59898;52.786;6.892;2023-08-12T02:05:18;20.00;91.10
52669;DHT22;59898;52.786;6.892;2023-08-12T02:08:38;20.00;92.00
52669;DHT22;59898;52.786;6.892;2023-08-12T02:11:59;20.00;91.30
52669;DHT22;59898;52.786;6.892;2023-08-12T02:15:19;20.00;91.10
52669;DHT22;59898;52.786;6.892;2023-08-12T02:18:40;20.00;91.40
52669;DHT22;59898;52.786;6.892;2023-08-12T02:22:01;20.00;91.20
52669;DHT22;59898;52.786;6.892;2023-08-12T02:25:23;20.00;91.90
52669;DHT22;59898;52.786;6.892;2023-08-12T02:28:44;19.90;93.10
52669;DHT22;59898;52.786;6.892;2023-08-12T02:32:05;19.90;91.60
52669;DHT22;59898;52.786;6.892;2023-08-12T02:35:25;19.90;91.60
52669;DHT22;59898;52.786;6.892;2023-08-12T02:38:46;19.90;91.90
52669;DHT22;59898;52.786;6.892;2023-08-12T02:42:06;19.90;92.20
52669;DHT22;59898;52.786;6.892;2023-08-12T02:45:27;19.90;92.40
52669;DHT22;59898;52.786;6.892;2023-08-12T02:48:47;19.90;92.70
52669;DHT22;59898;52.786;6.892;2023-08-12T02:52:08;19.90;92.40
52669;DHT22;59898;52.786;6.892;2023-08-12T02:55:30;19.90;92.50
52669;DHT22;59898;52.786;6.892;2023-08-12T02:58:52;20.00;92.90
52669;DHT22;59898;52.786;6.892;2023-08-12T03:02:13;19.90;92.80
52669;DHT22;59898;52.786;6.892;2023-08-12T03:05:33;19.90;92.60
52669;DHT22;59898;52.786;6.892;2023-08-12T03:08:54;20.00;93.00
52669;DHT22;59898;52.786;6.892;2023-08-12T03:12:15;20.00;92.60
52669;DHT22;59898;52.786;6.892;2023-08-12T03:15:39;20.00;92.60
52669;DHT22;59898;52.786;6.892;2023-08-12T03:19:00;20.00;92.80
52669;DHT22;59898;52.786;6.892;2023-08-12T03:22:21;20.00;92.50
52669;DHT22;59898;52.786;6.892;2023-08-12T03:25:41;20.00;92.60
52669;DHT22;59898;52.786;6.892;2023-08-12T03:29:02;20.10;92.70
52669;DHT22;59898;52.786;6.892;2023-08-12T03:32:24;20.10;92.50
52669;DHT22;59898;52.786;6.892;2023-08-12T03:35:46;20.00;92.50
52669;DHT22;59898;52.786;6.892;2023-08-12T03:39:07;20.00;92.40
52669;DHT22;59898;52.786;6.892;2023-08-12T03:42:27;20.00;92.50
52669;DHT22;59898;52.786;6.892;2023-08-12T03:45:48;20.00;92.70
52669;DHT22;59898;52.786;6.892;2023-08-12T03:49:09;20.00;92.70
52669;DHT22;59898;52.786;6.892;2023-08-12T03:52:29;20.00;93.10
52669;DHT22;59898;52.786;6.892;2023-08-12T03:55:50;20.00;93.20
52669;DHT22;59898;52.786;6.892;2023-08-12T03:59:10;20.00;93.10
52669;DHT22;59898;52.786;6.892;2023-08-12T04:02:31;20.00;92.70
52669;DHT22;59898;52.786;6.892;2023-08-12T04:05:52;20.00;92.90
52669;DHT22;59898;52.786;6.892;2023-08-12T04:09:13;19.90;93.10
52669;DHT22;59898;52.786;6.892;2023-08-12T04:12:34;19.90;93.20
52669;DHT22;59898;52.786;6.892;2023-08-12T04:15:54;19.90;93.60
52669;DHT22;59898;52.786;6.892;2023-08-12T04:19:15;19.80;93.70
52669;DHT22;59898;52.786;6.892;2023-08-12T04:22:35;19.80;93.60
52669;DHT22;59898;52.786;6.892;2023-08-12T04:25:56;19.80;93.90
52669;DHT22;59898;52.786;6.892;2023-08-12T04:29:17;19.70;94.10
52669;DHT22;59898;52.786;6.892;2023-08-12T04:32:37;19.70;93.90
52669;DHT22;59898;52.786;6.892;2023-08-12T04:35:58;19.70;94.40
52669;DHT22;59898;52.786;6.892;2023-08-12T04:39:18;19.70;94.70
52669;DHT22;59898;52.786;6.892;2023-08-12T04:42:39;19.60;94.70
52669;DHT22;59898;52.786;6.892;2023-08-12T04:46:00;19.70;94.50
52669;DHT22;59898;52.786;6.892;2023-08-12T04:49:20;19.70;94.50
52669;DHT22;59898;52.786;6.892;2023-08-12T04:52:41;19.70;94.40
52669;DHT22;59898;52.786;6.892;2023-08-12T04:56:03;19.70;94.30
52669;DHT22;59898;52.786;6.892;2023-08-12T04:59:24;19.70;94.50
52669;DHT22;59898;52.786;6.892;2023-08-12T05:02:44;19.70;94.90
52669;DHT22;59898;52.786;6.892;2023-08-12T05:06:05;19.70;95.00
52669;DHT22;59898;52.786;6.892;2023-08-12T05:09:25;19.70;95.00
52669;DHT22;59898;52.786;6.892;2023-08-12T05:12:46;19.70;94.90
52669;DHT22;59898;52.786;6.892;2023-08-12T05:16:07;19.70;94.70
52669;DHT22;59898;52.786;6.892;2023-08-12T05:19:28;19.60;95.90
52669;DHT22;59898;52.786;6.892;2023-08-12T05:22:48;19.60;95.80
52669;DHT22;59898;52.786;6.892;2023-08-12T05:26:09;19.60;95.50
52669;DHT22;59898;52.786;6.892;2023-08-12T05:29:30;19.60;95.30
52669;DHT22;59898;52.786;6.892;2023-08-12T05:32:51;19.60;95.50
52669;DHT22;59898;52.786;6.892;2023-08-12T05:36:11;19.60;95.40
52669;DHT22;59898;52.786;6.892;2023-08-12T05:39:32;19.70;95.50
52669;DHT22;59898;52.786;6.892;2023-08-12T05:42:52;19.70;96.00
52669;DHT22;59898;52.786;6.892;2023-08-12T05:46:13;19.70;95.60
52669;DHT22;59898;52.786;6.892;2023-08-12T05:49:34;19.80;95.90
52669;DHT22;59898;52.786;6.892;2023-08-12T05:52:54;19.80;95.70
52669;DHT22;59898;52.786;6.892;2023-08-12T05:56:15;19.80;95.70
52669;DHT22;59898;52.786;6.892;2023-08-12T05:59:35;19.80;95.80
52669;DHT22;59898;52.786;6.892;2023-08-12T06:02:56;19.90;95.80
52669;DHT22;59898;52.786;6.892;2023-08-12T06:06:16;19.90;95.90
52669;DHT22;59898;52.786;6.892;2023-08-12T06:09:37;20.00;95.60
52669;DHT22;59898;52.786;6.892;2023-08-12T06:12:58;20.20;95.60
52669;DHT22;59898;52.786;6.892;2023-08-12T06:16:18;20.20;95.30
52669;DHT22;59898;52.786;6.892;2023-08-12T06:19:39;20.40;95.10
52669;DHT22;59898;52.786;6.892;2023-08-12T06:22:59;20.50;94.80
52669;DHT22;59898;52.786;6.892;2023-08-12T06:26:20;20.50;94.40
52669;DHT22;59898;52.786;6.892;2023-08-12T06:29:40;20.50;94.70
52669;DHT22;59898;52.786;6.892;2023-08-12T06:33:01;20.50;94.50
52669;DHT22;59898;52.786;6.892;2023-08-12T06:36:22;20.50;94.90
52669;DHT22;59898;52.786;6.892;2023-08-12T06:39:43;20.50;94.80
52669;DHT22;59898;52.786;6.892;2023-08-12T06:43:03;20.50;94.80
52669;DHT22;59898;52.786;6.892;2023-08-12T06:46:24;20.50;94.90
52669;DHT22;59898;52.786;6.892;2023-08-12T06:49:44;20.50;95.20
52669;DHT22;59898;52.786;6.892;2023-08-12T06:53:05;20.40;95.30
52669;DHT22;59898;52.786;6.892;2023-08-12T06:56:25;20.50;95.20
52669;DHT22;59898;52.786;6.892;2023-08-12T06:59:46;20.50;95.50
52669;DHT22;59898;52.786;6.892;2023-08-12T07:03:06;20.50;95.20
52669;DHT22;59898;52.786;6.892;2023-08-12T07:06:27;20.50;95.00
52669;DHT22;59898;52.786;6.892;2023-08-12T07:09:48;20.50;95.60
52669;DHT22;59898;52.786;6.892;2023-08-12T07:13:08;20.40;95.50
52669;DHT22;59898;52.786;6.892;2023-08-12T07:16:29;20.40;95.50
52669;DHT22;59898;52.786;6.892;2023-08-12T07:19:49;20.50;95.30
52669;DHT22;59898;52.786;6.892;2023-08-12T07:23:10;20.50;95.60
52669;DHT22;59898;52.786;6.892;2023-08-12T07:26:31;20.60;95.20
52669;DHT22;59898;52.786;6.892;2023-08-12T07:29:51;20.60;95.10
52669;DHT22;59898;52.786;6.892;2023-08-12T07:33:12;20.60;95.50
52669;DHT22;59898;52.786;6.892;2023-08-12T07:36:32;20.60;95.50
52669;DHT22;59898;52.786;6.892;2023-08-12T07:39:53;20.60;95.40
52669;DHT22;59898;52.786;6.892;2023-08-12T07:43:13;20.60;95.40
52669;DHT22;59898;52.786;6.892;2023-08-12T07:46:34;20.60;95.60
52669;DHT22;59898;52.786;6.892;2023-08-12T07:49:55;20.60;95.90
52669;DHT22;59898;52.786;6.892;2023-08-12T07:53:16;20.60;95.70
52669;DHT22;59898;52.786;6.892;2023-08-12T07:56:36;20.70;95.60
52669;DHT22;59898;52.786;6.892;2023-08-12T07:59:57;20.70;95.90
52669;DHT22;59898;52.786;6.892;2023-08-12T08:03:17;20.70;95.90
52669;DHT22;59898;52.786;6.892;2023-08-12T08:06:38;20.70;95.90
52669;DHT22;59898;52.786;6.892;2023-08-12T08:10:02;20.70;96.20
52669;DHT22;59898;52.786;6.892;2023-08-12T08:13:22;20.70;96.20
52669;DHT22;59898;52.786;6.892;2023-08-12T08:16:43;20.70;96.10
52669;DHT22;59898;52.786;6.892;2023-08-12T08:20:04;20.70;96.20
52669;DHT22;59898;52.786;6.892;2023-08-12T08:23:25;20.60;96.20
52669;DHT22;59898;52.786;6.892;2023-08-12T08:26:46;20.60;96.20
52669;DHT22;59898;52.786;6.892;2023-08-12T08:30:07;20.50;96.30
52669;DHT22;59898;52.786;6.892;2023-08-12T08:33:29;20.50;96.10
52669;DHT22;59898;52.786;6.892;2023-08-12T08:36:50;20.40;96.40
52669;DHT22;59898;52.786;6.892;2023-08-12T08:40:11;20.40;96.60
52669;DHT22;59898;52.786;6.892;2023-08-12T08:43:32;20.40;96.40
52669;DHT22;59898;52.786;6.892;2023-08-12T08:46:55;20.40;96.40
52669;DHT22;59898;52.786;6.892;2023-08-12T08:50:17;20.40;96.90
52669;DHT22;59898;52.786;6.892;2023-08-12T08:53:39;20.40;96.80
52669;DHT22;59898;52.786;6.892;2023-08-12T08:57:00;20.40;96.80
52669;DHT22;59898;52.786;6.892;2023-08-12T09:00:20;20.40;97.00
52669;DHT22;59898;52.786;6.892;2023-08-12T09:03:42;20.40;96.90
52669;DHT22;59898;52.786;6.892;2023-08-12T09:07:03;20.40;96.70
52669;DHT22;59898;52.786;6.892;2023-08-12T09:10:26;20.40;96.70
52669;DHT22;59898;52.786;6.892;2023-08-12T09:13:47;20.40;96.70
52669;DHT22;59898;52.786;6.892;2023-08-12T09:17:09;20.40;96.60
52669;DHT22;59898;52.786;6.892;2023-08-12T09:20:30;20.30;96.80
52669;DHT22;59898;52.786;6.892;2023-08-12T09:23:51;20.30;97.00
52669;DHT22;59898;52.786;6.892;2023-08-12T09:27:11;20.30;97.40
52669;DHT22;59898;52.786;6.892;2023-08-12T09:30:32;20.20;96.90
52669;DHT22;59898;52.786;6.892;2023-08-12T09:33:53;20.20;97.40
52669;DHT22;59898;52.786;6.892;2023-08-12T09:37:18;20.10;97.40
52669;DHT22;59898;52.786;6.892;2023-08-12T09:40:40;20.10;97.60
52669;DHT22;59898;52.786;6.892;2023-08-12T09:44:02;20.00;97.90
52669;DHT22;59898;52.786;6.892;2023-08-12T09:47:25;20.00;97.70
52669;DHT22;59898;52.786;6.892;2023-08-12T09:50:45;20.00;97.40
52669;DHT22;59898;52.786;6.892;2023-08-12T09:54:06;19.90;97.40
52669;DHT22;59898;52.786;6.892;2023-08-12T09:57:30;19.80;97.70
52669;DHT22;59898;52.786;6.892;2023-08-12T10:00:52;19.80;97.50
52669;DHT22;59898;52.786;6.892;2023-08-12T10:04:14;19.70;97.70
52669;DHT22;59898;52.786;6.892;2023-08-12T10:07:38;19.70;98.00
52669;DHT22;59898;52.786;6.892;2023-08-12T10:11:00;19.60;97.80
52669;DHT22;59898;52.786;6.892;2023-08-12T10:14:21;19.70;97.70
52669;DHT22;59898;52.786;6.892;2023-08-12T10:17:42;19.60;98.10
52669;DHT22;59898;52.786;6.892;2023-08-12T10:21:04;19.70;97.90
52669;DHT22;59898;52.786;6.892;2023-08-12T10:24:27;19.70;97.80
52669;DHT22;59898;52.786;6.892;2023-08-12T10:27:48;19.80;97.60
52669;DHT22;59898;52.786;6.892;2023-08-12T10:31:11;19.80;97.60
52669;DHT22;59898;52.786;6.892;2023-08-12T10:34:32;19.80;97.70
52669;DHT22;59898;52.786;6.892;2023-08-12T10:37:52;19.80;97.60
52669;DHT22;59898;52.786;6.892;2023-08-12T10:41:22;19.80;97.60
52669;DHT22;59898;52.786;6.892;2023-08-12T10:44:51;19.90;97.70
52669;DHT22;59898;52.786;6.892;2023-08-12T10:48:17;19.90;97.60
52669;DHT22;59898;52.786;6.892;2023-08-12T10:55:17;20.10;97.30
52669;DHT22;59898;52.786;6.892;2023-08-12T10:58:45;20.20;97.20
52669;DHT22;59898;52.786;6.892;2023-08-12T11:02:07;20.20;97.10
52669;DHT22;59898;52.786;6.892;2023-08-12T11:05:36;20.30;96.90
52669;DHT22;59898;52.786;6.892;2023-08-12T11:08:58;20.30;96.90
52669;DHT22;59898;52.786;6.892;2023-08-12T11:12:38;20.30;96.90
52669;DHT22;59898;52.786;6.892;2023-08-12T11:16:07;20.40;96.70
52669;DHT22;59898;52.786;6.892;2023-08-12T11:19:30;20.60;96.70
52669;DHT22;59898;52.786;6.892;2023-08-12T11:22:52;20.70;96.80
52669;DHT22;59898;52.786;6.892;2023-08-12T11:26:13;20.70;96.40
52669;DHT22;59898;52.786;6.892;2023-08-12T11:29:34;20.70;96.00
52669;DHT22;59898;52.786;6.892;2023-08-12T11:32:55;20.60;94.70
52669;DHT22;59898;52.786;6.892;2023-08-12T11:36:16;20.60;94.50
52669;DHT22;59898;52.786;6.892;2023-08-12T11:39:37;20.60;94.50
52669;DHT22;59898;52.786;6.892;2023-08-12T11:42:58;20.60;94.30
52669;DHT22;59898;52.786;6.892;2023-08-12T11:46:19;20.60;94.40
52669;DHT22;59898;52.786;6.892;2023-08-12T11:49:39;20.60;94.40
52669;DHT22;59898;52.786;6.892;2023-08-12T11:53:00;20.60;94.40
52669;DHT22;59898;52.786;6.892;2023-08-12T11:56:21;20.70;94.50
52669;DHT22;59898;52.786;6.892;2023-08-12T11:59:41;20.80;94.40
52669;DHT22;59898;52.786;6.892;2023-08-12T12:03:03;21.10;93.90
52669;DHT22;59898;52.786;6.892;2023-08-12T12:06:32;21.30;93.40
52669;DHT22;59898;52.786;6.892;2023-08-12T12:09:54;21.40;92.50
52669;DHT22;59898;52.786;6.892;2023-08-12T12:13:14;21.50;92.50
52669;DHT22;59898;52.786;6.892;2023-08-12T12:16:39;21.60;92.20
52669;DHT22;59898;52.786;6.892;2023-08-12T12:20:01;21.70;92.00
52669;DHT22;59898;52.786;6.892;2023-08-12T12:23:22;21.70;91.40
52669;DHT22;59898;52.786;6.892;2023-08-12T12:26:43;21.80;91.40
52669;DHT22;59898;52.786;6.892;2023-08-12T12:30:05;21.80;91.60
52669;DHT22;59898;52.786;6.892;2023-08-12T12:33:25;21.80;91.70
52669;DHT22;59898;52.786;6.892;2023-08-12T12:36:46;21.90;91.40
52669;DHT22;59898;52.786;6.892;2023-08-12T12:40:07;21.90;91.00
52669;DHT22;59898;52.786;6.892;2023-08-12T12:43:27;21.90;91.30
52669;DHT22;59898;52.786;6.892;2023-08-12T12:46:48;21.90;91.00
52669;DHT22;59898;52.786;6.892;2023-08-12T12:50:09;21.80;90.00
52669;DHT22;59898;52.786;6.892;2023-08-12T12:53:29;21.70;89.80
52669;DHT22;59898;52.786;6.892;2023-08-12T12:56:50;21.70;90.10
52669;DHT22;59898;52.786;6.892;2023-08-12T13:00:11;21.80;89.20
52669;DHT22;59898;52.786;6.892;2023-08-12T13:03:32;21.90;88.70
52669;DHT22;59898;52.786;6.892;2023-08-12T13:06:53;22.10;87.90
52669;DHT22;59898;52.786;6.892;2023-08-12T13:10:13;22.40;87.10
52669;DHT22;59898;52.786;6.892;2023-08-12T13:13:34;22.50;85.20
52669;DHT22;59898;52.786;6.892;2023-08-12T13:16:55;22.60;83.80
52669;DHT22;59898;52.786;6.892;2023-08-12T13:20:17;22.50;82.10
52669;DHT22;59898;52.786;6.892;2023-08-12T13:23:38;22.50;77.80
52669;DHT22;59898;52.786;6.892;2023-08-12T13:26:58;22.60;78.30
52669;DHT22;59898;52.786;6.892;2023-08-12T13:30:19;22.70;78.50
52669;DHT22;59898;52.786;6.892;2023-08-12T13:33:39;22.80;76.00
52669;DHT22;59898;52.786;6.892;2023-08-12T13:37:00;23.00;75.00
52669;DHT22;59898;52.786;6.892;2023-08-12T13:40:21;23.00;73.20
52669;DHT22;59898;52.786;6.892;2023-08-12T13:43:41;23.10;73.00
52669;DHT22;59898;52.786;6.892;2023-08-12T13:47:02;23.20;73.00
52669;DHT22;59898;52.786;6.892;2023-08-12T13:50:22;23.30;70.60
52669;DHT22;59898;52.786;6.892;2023-08-12T13:53:43;23.40;70.50
52669;DHT22;59898;52.786;6.892;2023-08-12T13:57:04;23.50;69.60
52669;DHT22;59898;52.786;6.892;2023-08-12T14:00:24;23.70;69.20
52669;DHT22;59898;52.786;6.892;2023-08-12T14:03:45;23.70;69.40
52669;DHT22;59898;52.786;6.892;2023-08-12T14:07:05;23.90;69.30
52669;DHT22;59898;52.786;6.892;2023-08-12T14:10:26;24.00;68.60
52669;DHT22;59898;52.786;6.892;2023-08-12T14:13:47;24.00;67.00
52669;DHT22;59898;52.786;6.892;2023-08-12T14:17:08;24.10;66.40
52669;DHT22;59898;52.786;6.892;2023-08-12T14:20:28;24.20;66.80
52669;DHT22;59898;52.786;6.892;2023-08-12T14:23:49;24.40;66.50
52669;DHT22;59898;52.786;6.892;2023-08-12T14:27:10;24.50;66.10
52669;DHT22;59898;52.786;6.892;2023-08-12T14:30:30;24.60;64.90
52669;DHT22;59898;52.786;6.892;2023-08-12T14:33:51;24.60;64.50
52669;DHT22;59898;52.786;6.892;2023-08-12T14:37:12;24.70;64.40
52669;DHT22;59898;52.786;6.892;2023-08-12T14:40:32;24.60;63.30
52669;DHT22;59898;52.786;6.892;2023-08-12T14:43:53;24.60;63.20
52669;DHT22;59898;52.786;6.892;2023-08-12T14:47:13;24.50;63.40
52669;DHT22;59898;52.786;6.892;2023-08-12T14:50:34;24.40;62.60
52669;DHT22;59898;52.786;6.892;2023-08-12T14:53:57;24.30;63.20
52669;DHT22;59898;52.786;6.892;2023-08-12T14:57:17;24.30;63.60
52669;DHT22;59898;52.786;6.892;2023-08-12T15:00:38;24.40;63.30
52669;DHT22;59898;52.786;6.892;2023-08-12T15:03:59;24.30;63.50
52669;DHT22;59898;52.786;6.892;2023-08-12T15:07:19;24.20;64.10
52669;DHT22;59898;52.786;6.892;2023-08-12T15:10:42;24.20;63.80
52669;DHT22;59898;52.786;6.892;2023-08-12T15:14:03;24.20;63.90
52669;DHT22;59898;52.786;6.892;2023-08-12T15:17:23;24.30;62.90
52669;DHT22;59898;52.786;6.892;2023-08-12T15:20:44;24.30;62.50
52669;DHT22;59898;52.786;6.892;2023-08-12T15:24:05;24.30;61.90
52669;DHT22;59898;52.786;6.892;2023-08-12T15:27:26;24.20;61.70
52669;DHT22;59898;52.786;6.892;2023-08-12T15:30:50;24.10;62.00
52669;DHT22;59898;52.786;6.892;2023-08-12T15:34:10;24.10;60.70
52669;DHT22;59898;52.786;6.892;2023-08-12T15:37:31;24.20;60.90
52669;DHT22;59898;52.786;6.892;2023-08-12T15:40:51;24.20;61.20
52669;DHT22;59898;52.786;6.892;2023-08-12T15:44:12;24.10;59.50
52669;DHT22;59898;52.786;6.892;2023-08-12T15:47:33;23.90;59.70
52669;DHT22;59898;52.786;6.892;2023-08-12T15:50:53;23.80;60.40
52669;DHT22;59898;52.786;6.892;2023-08-12T15:54:14;23.80;60.50
52669;DHT22;59898;52.786;6.892;2023-08-12T15:57:35;23.80;60.70
52669;DHT22;59898;52.786;6.892;2023-08-12T16:00:55;23.80;60.80
52669;DHT22;59898;52.786;6.892;2023-08-12T16:04:16;23.90;61.10
52669;DHT22;59898;52.786;6.892;2023-08-12T16:07:36;23.80;61.10
52669;DHT22;59898;52.786;6.892;2023-08-12T16:10:57;23.80;61.10
52669;DHT22;59898;52.786;6.892;2023-08-12T16:14:17;23.90;59.90
52669;DHT22;59898;52.786;6.892;2023-08-12T16:17:38;23.90;59.30
52669;DHT22;59898;52.786;6.892;2023-08-12T16:20:59;23.90;58.60
52669;DHT22;59898;52.786;6.892;2023-08-12T16:24:19;23.80;58.70
52669;DHT22;59898;52.786;6.892;2023-08-12T16:27:40;23.80;58.60
52669;DHT22;59898;52.786;6.892;2023-08-12T16:31:03;23.80;58.50
52669;DHT22;59898;52.786;6.892;2023-08-12T16:34:23;23.80;58.30
52669;DHT22;59898;52.786;6.892;2023-08-12T16:37:44;23.80;57.40
52669;DHT22;59898;52.786;6.892;2023-08-12T16:41:04;23.80;57.30
52669;DHT22;59898;52.786;6.892;2023-08-12T16:44:25;23.70;57.70
52669;DHT22;59898;52.786;6.892;2023-08-12T16:47:48;23.60;57.40
52669;DHT22;59898;52.786;6.892;2023-08-12T16:51:08;23.60;57.90
52669;DHT22;59898;52.786;6.892;2023-08-12T16:54:29;23.50;58.00
52669;DHT22;59898;52.786;6.892;2023-08-12T16:57:49;23.50;57.80
52669;DHT22;59898;52.786;6.892;2023-08-12T17:01:10;23.50;57.40
52669;DHT22;59898;52.786;6.892;2023-08-12T17:04:31;23.40;57.40
52669;DHT22;59898;52.786;6.892;2023-08-12T17:07:51;23.40;57.50
52669;DHT22;59898;52.786;6.892;2023-08-12T17:11:12;23.40;57.80
52669;DHT22;59898;52.786;6.892;2023-08-12T17:14:33;23.30;58.30
52669;DHT22;59898;52.786;6.892;2023-08-12T17:17:53;23.40;58.60
52669;DHT22;59898;52.786;6.892;2023-08-12T17:21:14;23.40;59.10
52669;DHT22;59898;52.786;6.892;2023-08-12T17:24:34;23.30;59.00
52669;DHT22;59898;52.786;6.892;2023-08-12T17:27:55;23.30;59.40
52669;DHT22;59898;52.786;6.892;2023-08-12T17:31:15;23.20;59.50
52669;DHT22;59898;52.786;6.892;2023-08-12T17:34:37;23.30;59.80
52669;DHT22;59898;52.786;6.892;2023-08-12T17:37:57;23.20;60.30
52669;DHT22;59898;52.786;6.892;2023-08-12T17:41:18;23.20;60.40
52669;DHT22;59898;52.786;6.892;2023-08-12T17:44:39;23.20;60.70
52669;DHT22;59898;52.786;6.892;2023-08-12T17:48:00;23.10;60.70
52669;DHT22;59898;52.786;6.892;2023-08-12T17:51:23;23.10;61.00
52669;DHT22;59898;52.786;6.892;2023-08-12T17:54:44;23.00;60.90
52669;DHT22;59898;52.786;6.892;2023-08-12T17:58:05;22.90;61.10
52669;DHT22;59898;52.786;6.892;2023-08-12T18:01:25;22.90;61.50
52669;DHT22;59898;52.786;6.892;2023-08-12T18:04:46;22.80;61.70
52669;DHT22;59898;52.786;6.892;2023-08-12T18:08:06;22.80;62.10
52669;DHT22;59898;52.786;6.892;2023-08-12T18:11:27;22.70;62.20
52669;DHT22;59898;52.786;6.892;2023-08-12T18:14:48;22.70;62.60
52669;DHT22;59898;52.786;6.892;2023-08-12T18:18:08;22.60;63.00
52669;DHT22;59898;52.786;6.892;2023-08-12T18:21:29;22.60;63.20
52669;DHT22;59898;52.786;6.892;2023-08-12T18:24:49;22.60;63.30
52669;DHT22;59898;52.786;6.892;2023-08-12T18:28:10;22.50;64.00
52669;DHT22;59898;52.786;6.892;2023-08-12T18:31:30;22.50;64.30
52669;DHT22;59898;52.786;6.892;2023-08-12T18:34:51;22.50;64.10
52669;DHT22;59898;52.786;6.892;2023-08-12T18:38:11;22.40;64.30
52669;DHT22;59898;52.786;6.892;2023-08-12T18:41:32;22.30;64.60
52669;DHT22;59898;52.786;6.892;2023-08-12T18:44:53;22.20;64.90
52669;DHT22;59898;52.786;6.892;2023-08-12T18:48:13;22.20;65.10
52669;DHT22;59898;52.786;6.892;2023-08-12T18:51:34;22.10;65.20
52669;DHT22;59898;52.786;6.892;2023-08-12T18:54:54;22.00;65.50
52669;DHT22;59898;52.786;6.892;2023-08-12T18:58:17;21.90;65.80
52669;DHT22;59898;52.786;6.892;2023-08-12T19:01:38;21.80;66.00
52669;DHT22;59898;52.786;6.892;2023-08-12T19:04:58;21.80;66.10
52669;DHT22;59898;52.786;6.892;2023-08-12T19:08:19;21.70;66.40
52669;DHT22;59898;52.786;6.892;2023-08-12T19:11:39;21.60;66.80
52669;DHT22;59898;52.786;6.892;2023-08-12T19:15:00;21.50;67.10
52669;DHT22;59898;52.786;6.892;2023-08-12T19:18:24;21.40;67.20
52669;DHT22;59898;52.786;6.892;2023-08-12T19:21:46;21.30;67.40
52669;DHT22;59898;52.786;6.892;2023-08-12T19:25:08;21.20;67.80
52669;DHT22;59898;52.786;6.892;2023-08-12T19:28:28;21.10;68.10
52669;DHT22;59898;52.786;6.892;2023-08-12T19:31:49;21.00;68.20
52669;DHT22;59898;52.786;6.892;2023-08-12T19:35:10;20.90;68.40
52669;DHT22;59898;52.786;6.892;2023-08-12T19:38:30;20.90;68.80
52669;DHT22;59898;52.786;6.892;2023-08-12T19:41:51;20.80;69.10
52669;DHT22;59898;52.786;6.892;2023-08-12T19:45:11;20.70;69.60
52669;DHT22;59898;52.786;6.892;2023-08-12T19:48:32;20.60;69.70
52669;DHT22;59898;52.786;6.892;2023-08-12T19:51:53;20.50;69.90
52669;DHT22;59898;52.786;6.892;2023-08-12T19:55:13;20.40;70.30
52669;DHT22;59898;52.786;6.892;2023-08-12T19:58:34;20.30;70.50
52669;DHT22;59898;52.786;6.892;2023-08-12T20:01:54;20.30;70.60
52669;DHT22;59898;52.786;6.892;2023-08-12T20:05:16;20.20;70.70
52669;DHT22;59898;52.786;6.892;2023-08-12T20:08:37;20.20;70.40
52669;DHT22;59898;52.786;6.892;2023-08-12T20:11:58;20.10;70.20
52669;DHT22;59898;52.786;6.892;2023-08-12T20:15:18;20.10;69.90
52669;DHT22;59898;52.786;6.892;2023-08-12T20:18:39;20.00;69.60
52669;DHT22;59898;52.786;6.892;2023-08-12T20:22:00;20.00;69.50
52669;DHT22;59898;52.786;6.892;2023-08-12T20:25:20;19.90;69.70
52669;DHT22;59898;52.786;6.892;2023-08-12T20:28:41;19.90;69.40
52669;DHT22;59898;52.786;6.892;2023-08-12T20:32:01;19.80;69.30
52669;DHT22;59898;52.786;6.892;2023-08-12T20:35:23;19.80;69.10
52669;DHT22;59898;52.786;6.892;2023-08-12T20:38:43;19.70;69.00
52669;DHT22;59898;52.786;6.892;2023-08-12T20:42:04;19.70;68.70
52669;DHT22;59898;52.786;6.892;2023-08-12T20:45:24;19.60;68.70
52669;DHT22;59898;52.786;6.892;2023-08-12T20:48:45;19.60;68.90
52669;DHT22;59898;52.786;6.892;2023-08-12T20:52:06;19.60;68.90
52669;DHT22;59898;52.786;6.892;2023-08-12T20:55:26;19.60;68.60
52669;DHT22;59898;52.786;6.892;2023-08-12T20:58:47;19.60;68.30
52669;DHT22;59898;52.786;6.892;2023-08-12T21:02:07;19.50;68.30
52669;DHT22;59898;52.786;6.892;2023-08-12T21:05:28;19.50;68.20
52669;DHT22;59898;52.786;6.892;2023-08-12T21:08:48;19.50;68.20
52669;DHT22;59898;52.786;6.892;2023-08-12T21:12:09;19.40;68.20
52669;DHT22;59898;52.786;6.892;2023-08-12T21:15:31;19.40;67.90